Time;durP1;ratioP1;P1;durP2;ratioP2;P2;SDS_P1;SDS_P2;PMS_P1;PMS_P2;Temp;Humidity;BMP_temperature;BMP_pressure;BME280_temperature;BME280_humidity;BME280_pressure;Samples;Min_cycle;Max_cycle;Signal;HPM_P1;HPM_P2
2023/12/10 00:01:18;;;;;;;21.50;5.18;;;;;;;9.56;70.44;99861.00;5050207;28;20059;-65
2023/12/10 00:03:46;;;;;;;28.88;6.10;;;;;;;9.58;70.84;99861.56;5079057;28;20056;-65
2023/12/10 00:06:14;;;;;;;26.20;5.70;;;;;;;9.57;70.15;99851.91;5063827;28;20112;-66
2023/12/10 00:08:42;;;;;;;26.80;5.82;;;;;;;9.56;70.81;99850.28;5052355;28;20043;-64
2023/12/10 00:11:11;;;;;;;25.80;5.80;;;;;;;9.57;70.60;99854.59;5065019;28;20045;-65
2023/12/10 00:13:41;;;;;;;27.95;5.30;;;;;;;9.57;70.17;99850.03;5063856;28;20052;-66
2023/12/10 00:16:12;;;;;;;26.90;5.97;;;;;;;9.56;70.80;99856.44;5073682;28;20076;-64
2023/12/10 00:18:40;;;;;;;26.13;5.95;;;;;;;9.56;70.87;99861.81;5083507;28;20052;-64
2023/12/10 00:21:13;;;;;;;27.98;5.03;;;;;;;9.56;70.92;99863.69;5063300;28;20075;-64
2023/12/10 00:23:41;;;;;;;26.00;5.00;;;;;;;9.56;70.33;99866.38;5061483;28;20181;-64
2023/12/10 00:26:09;;;;;;;32.10;6.15;;;;;;;9.58;70.71;99875.00;5062557;28;20480;-63
2023/12/10 00:28:37;;;;;;;26.70;6.20;;;;;;;9.57;70.33;99876.84;5062027;28;20107;-64
2023/12/10 00:31:08;;;;;;;32.65;6.63;;;;;;;9.56;70.10;99871.72;5072423;28;20048;-64
2023/12/10 00:33:36;;;;;;;25.92;4.15;;;;;;;9.55;70.55;99860.19;5061255;28;20471;-63
2023/12/10 00:36:06;;;;;;;26.75;5.20;;;;;;;9.55;70.34;99872.78;5058486;28;20055;-64
2023/12/10 00:38:33;;;;;;;26.30;6.75;;;;;;;9.55;70.30;99878.97;5063724;28;20102;-64
2023/12/10 00:41:02;;;;;;;27.65;5.55;;;;;;;9.55;70.24;99886.19;5063253;28;20449;-64
2023/12/10 00:43:29;;;;;;;27.40;5.75;;;;;;;9.54;69.73;99884.56;5071815;28;20106;-63
2023/12/10 00:45:57;;;;;;;26.58;5.47;;;;;;;9.55;70.38;99902.28;5070769;28;20559;-64
2023/12/10 00:48:27;;;;;;;24.13;6.53;;;;;;;9.54;70.19;99906.84;5070656;28;20076;-64
2023/12/10 00:50:55;;;;;;;30.67;6.15;;;;;;;9.54;70.24;99903.34;5072856;28;20049;-65
2023/12/10 00:53:23;;;;;;;25.63;4.60;;;;;;;9.53;70.15;99897.16;5062580;28;20057;-64
2023/12/10 00:55:51;;;;;;;23.10;5.22;;;;;;;9.52;70.33;99908.13;5071394;28;20056;-64
2023/12/10 00:58:19;;;;;;;26.73;5.05;;;;;;;9.52;69.92;99919.66;5078513;28;20048;-63
2023/12/10 01:00:47;;;;;;;25.73;5.10;;;;;;;9.51;69.82;99920.72;5075644;28;20045;-63
2023/12/10 01:03:15;;;;;;;20.70;4.28;;;;;;;9.43;69.81;99908.50;5069445;28;20114;-63
2023/12/10 01:05:44;;;;;;;23.42;4.95;;;;;;;9.52;69.62;99927.72;5074744;28;20069;-64
2023/12/10 01:08:12;;;;;;;33.65;6.28;;;;;;;9.51;69.98;99918.03;5072264;28;20523;-65
2023/12/10 01:10:40;;;;;;;26.40;4.47;;;;;;;9.50;69.93;99916.41;5086309;28;20040;-65
2023/12/10 01:13:08;;;;;;;30.55;5.38;;;;;;;9.49;70.22;99920.16;5075839;28;20057;-64
2023/12/10 01:15:36;;;;;;;24.15;5.03;;;;;;;9.49;69.83;99930.88;5073653;28;20110;-64
2023/12/10 01:18:04;;;;;;;22.42;5.88;;;;;;;9.46;70.07;99926.78;5065165;28;20045;-64
2023/12/10 01:20:33;;;;;;;21.33;5.03;;;;;;;9.47;70.17;99935.66;5069960;28;20045;-64
2023/12/10 01:23:04;;;;;;;18.80;5.00;;;;;;;9.46;70.14;99925.97;5066586;28;20125;-63
2023/12/10 01:25:32;;;;;;;16.65;4.07;;;;;;;9.48;70.18;99933.78;5062379;28;20075;-64
2023/12/10 01:28:00;;;;;;;21.75;4.55;;;;;;;9.47;70.24;99924.94;5067125;28;20072;-64
2023/12/10 01:30:29;;;;;;;24.75;4.18;;;;;;;9.45;69.87;99938.56;5072775;28;20048;-64
2023/12/10 01:32:58;;;;;;;23.67;4.97;;;;;;;9.45;69.93;99935.91;5072470;28;20057;-63
2023/12/10 01:35:27;;;;;;;24.58;4.85;;;;;;;9.45;69.95;99948.50;5065425;28;20041;-64
2023/12/10 01:37:55;;;;;;;17.33;4.10;;;;;;;9.44;69.75;99946.84;5066507;28;20049;-64
2023/12/10 01:40:25;;;;;;;21.73;5.40;;;;;;;9.43;70.01;99946.03;5069674;28;20057;-65
2023/12/10 01:42:53;;;;;;;23.42;4.60;;;;;;;9.46;70.21;99948.25;5070438;28;20049;-63
2023/12/10 01:45:21;;;;;;;14.70;4.18;;;;;;;9.45;70.14;99954.66;5077897;28;20084;-63
2023/12/10 01:47:51;;;;;;;24.15;4.32;;;;;;;9.43;69.68;99954.09;5075122;28;20124;-63
2023/12/10 01:50:21;;;;;;;21.65;4.70;;;;;;;9.43;69.53;99970.19;5085631;28;20106;-63
2023/12/10 01:52:50;;;;;;;21.02;4.88;;;;;;;9.44;69.74;99976.38;5074157;28;20049;-66
2023/12/10 01:55:19;;;;;;;26.13;5.43;;;;;;;9.43;69.43;99970.19;5085571;28;20056;-64
2023/12/10 01:57:48;;;;;;;23.30;3.92;;;;;;;9.42;69.40;99971.22;5076345;28;20045;-64
2023/12/10 02:00:18;;;;;;;20.20;5.07;;;;;;;9.43;69.37;99977.41;5076569;28;20063;-64
2023/12/10 02:02:47;;;;;;;23.33;5.00;;;;;;;9.44;69.18;99979.03;5075403;28;20037;-64
2023/12/10 02:05:15;;;;;;;17.58;4.50;;;;;;;9.43;69.24;99982.78;5064989;28;20132;-64
2023/12/10 02:07:43;;;;;;;22.77;4.15;;;;;;;9.42;68.99;99978.47;5071610;28;20056;-64
2023/12/10 02:10:11;;;;;;;21.15;4.07;;;;;;;9.40;68.80;99996.66;5080007;28;20101;-64
2023/12/10 02:12:40;;;;;;;21.45;4.80;;;;;;;9.40;69.29;100000.16;5058296;28;20057;-64
2023/12/10 02:15:15;;;;;;;24.27;4.20;;;;;;;9.39;69.15;100008.44;5056190;28;20048;-65
2023/12/10 02:17:45;;;;;;;22.67;4.40;;;;;;;9.39;69.61;99995.03;5063906;28;20120;-67
2023/12/10 02:20:14;;;;;;;16.20;4.13;;;;;;;9.40;69.54;99999.34;5063685;28;20052;-68
2023/12/10 02:22:52;;;;;;;23.60;4.75;;;;;;;9.37;69.25;99983.72;5063117;28;20059;-65
2023/12/10 02:25:29;;;;;;;31.35;5.03;;;;;;;9.39;69.00;99985.09;5068360;28;20045;-64
2023/12/10 02:27:57;;;;;;;24.58;4.15;;;;;;;9.40;69.56;99991.28;5069100;28;20107;-64
2023/12/10 02:30:24;;;;;;;25.85;3.63;;;;;;;9.39;69.55;99990.47;5063261;28;20049;-65
2023/12/10 02:32:52;;;;;;;22.13;5.18;;;;;;;9.39;69.75;99995.03;5067102;28;20056;-65
2023/12/10 02:35:21;;;;;;;24.05;5.13;;;;;;;9.37;69.28;100008.66;5048680;28;20136;-64
2023/12/10 02:37:49;;;;;;;27.10;4.10;;;;;;;9.38;68.99;100004.13;5055294;28;20502;-64
2023/12/10 02:40:18;;;;;;;19.65;4.13;;;;;;;9.40;69.67;100015.44;5055295;28;20041;-65
2023/12/10 02:42:47;;;;;;;20.60;4.45;;;;;;;9.38;68.91;100002.25;5063774;28;20049;-65
2023/12/10 02:45:16;;;;;;;19.55;4.88;;;;;;;9.35;69.13;100004.59;5063779;28;20075;-65
2023/12/10 02:47:44;;;;;;;21.90;3.75;;;;;;;9.37;68.74;100007.84;5064963;28;20394;-65
2023/12/10 02:50:12;;;;;;;19.27;3.85;;;;;;;9.36;68.91;100006.22;5064203;28;20048;-65
2023/12/10 02:52:40;;;;;;;26.77;4.97;;;;;;;9.35;68.46;100015.31;5064130;28;20051;-65
2023/12/10 02:55:09;;;;;;;18.23;3.47;;;;;;;9.37;69.13;100014.03;5057609;28;20099;-66
2023/12/10 02:57:38;;;;;;;25.48;5.28;;;;;;;9.37;68.79;100023.94;5044722;28;20162;-64
2023/12/10 03:00:09;;;;;;;21.52;4.28;;;;;;;9.35;68.61;100009.94;5052704;28;20057;-64
2023/12/10 03:02:36;;;;;;;18.45;4.45;;;;;;;9.35;68.92;100005.41;5052608;28;20049;-64
2023/12/10 03:05:05;;;;;;;16.13;3.90;;;;;;;9.34;68.32;100022.53;5064945;28;20052;-64
2023/12/10 03:07:33;;;;;;;21.15;4.25;;;;;;;9.35;68.57;100018.00;5071711;28;20053;-65
2023/12/10 03:10:01;;;;;;;23.48;4.93;;;;;;;9.33;68.37;100023.59;5077216;28;20053;-65
2023/12/10 03:12:29;;;;;;;16.13;3.17;;;;;;;9.32;68.48;100024.63;5058520;28;20053;-65
2023/12/10 03:14:58;;;;;;;22.35;4.32;;;;;;;9.33;68.65;100030.81;5073523;28;20080;-65
2023/12/10 03:17:27;;;;;;;20.15;4.85;;;;;;;9.32;68.37;100035.38;5070421;28;20056;-65
2023/12/10 03:19:55;;;;;;;25.60;4.05;;;;;;;9.32;68.61;100040.72;5077318;28;20502;-65
2023/12/10 03:22:23;;;;;;;22.92;4.25;;;;;;;9.32;68.58;100051.44;5054811;28;20052;-65
2023/12/10 03:24:50;;;;;;;18.42;4.13;;;;;;;9.33;68.23;100052.28;5074846;28;20048;-65
2023/12/10 03:27:18;;;;;;;25.60;3.80;;;;;;;9.30;68.15;100045.50;5066506;28;20057;-64
2023/12/10 03:29:46;;;;;;;24.33;4.32;;;;;;;9.36;68.16;100057.16;5060880;28;20048;-64
2023/12/10 03:32:15;;;;;;;21.38;4.22;;;;;;;9.32;68.23;100056.00;5067937;28;20045;-65
2023/12/10 03:34:44;;;;;;;14.57;3.45;;;;;;;9.30;68.18;100068.81;5073065;28;20057;-65
2023/12/10 03:37:12;;;;;;;21.25;3.90;;;;;;;9.31;68.37;100071.28;5064009;28;20060;-65
2023/12/10 03:39:40;;;;;;;21.27;3.53;;;;;;;9.23;68.52;100058.22;5068020;28;20074;-64
2023/12/10 03:42:08;;;;;;;22.42;5.22;;;;;;;9.27;68.00;100058.56;5083222;28;20065;-64
2023/12/10 03:44:35;;;;;;;20.85;3.78;;;;;;;9.27;67.93;100082.69;5049820;28;20053;-65
2023/12/10 03:47:04;;;;;;;25.10;4.95;;;;;;;9.26;67.28;100060.44;5063434;28;20064;-64
2023/12/10 03:49:32;;;;;;;17.30;3.47;;;;;;;9.29;67.82;100073.38;5069653;28;20037;-64
2023/12/10 03:52:01;;;;;;;24.45;4.10;;;;;;;9.29;67.61;100067.19;5066184;28;20049;-65
2023/12/10 03:54:29;;;;;;;26.92;6.00;;;;;;;9.29;67.38;100073.38;5065783;28;20045;-64
2023/12/10 03:56:57;;;;;;;21.02;4.07;;;;;;;9.28;67.55;100070.91;5062825;28;20053;-65
2023/12/10 03:59:25;;;;;;;16.75;3.97;;;;;;;9.31;66.81;100070.47;5064114;28;20049;-65
2023/12/10 04:01:52;;;;;;;15.80;3.72;;;;;;;9.29;67.42;100076.06;5055282;28;20049;-65
2023/12/10 04:04:20;;;;;;;21.10;5.00;;;;;;;9.27;66.88;100098.78;5065982;28;20075;-66
2023/12/10 04:06:48;;;;;;;15.18;3.70;;;;;;;9.26;67.09;100089.91;5066729;28;20052;-65
2023/12/10 04:09:18;;;;;;;16.50;3.17;;;;;;;9.23;66.30;100085.03;5063299;28;20068;-65
2023/12/10 04:11:46;;;;;;;15.13;3.60;;;;;;;9.26;66.90;100091.78;5063179;28;20124;-65
2023/12/10 04:14:14;;;;;;;22.65;4.30;;;;;;;9.25;66.56;100107.06;5065591;28;20053;-64
2023/12/10 04:16:41;;;;;;;19.10;3.58;;;;;;;9.27;67.02;100110.31;5069321;28;20057;-64
2023/12/10 04:19:10;;;;;;;20.65;3.83;;;;;;;9.28;66.21;100103.09;5059843;28;20091;-65
2023/12/10 04:21:38;;;;;;;17.45;3.55;;;;;;;9.27;66.54;100117.56;5076423;28;20493;-65
2023/12/10 04:24:07;;;;;;;23.92;4.50;;;;;;;9.26;66.58;100118.59;5064349;28;20071;-66
2023/12/10 04:26:36;;;;;;;16.63;3.15;;;;;;;9.25;66.60;100109.75;5063039;28;20049;-66
2023/12/10 04:29:04;;;;;;;25.30;5.00;;;;;;;9.28;66.73;100108.47;5067232;28;20045;-65
2023/12/10 04:31:31;;;;;;;20.13;3.47;;;;;;;9.28;66.87;100117.31;5069058;28;20060;-65
2023/12/10 04:34:01;;;;;;;18.92;3.47;;;;;;;9.27;66.93;100101.47;5061787;28;20052;-65
2023/12/10 04:36:29;;;;;;;25.35;4.50;;;;;;;9.25;66.45;100117.78;5067601;28;20044;-66
2023/12/10 04:38:57;;;;;;;14.95;4.22;;;;;;;9.22;66.51;100128.97;5067506;28;20059;-64
2023/12/10 04:41:25;;;;;;;21.48;4.40;;;;;;;9.26;65.95;100134.69;5069363;28;20045;-65
2023/12/10 04:43:54;;;;;;;22.08;4.22;;;;;;;9.27;66.30;100122.91;5067064;28;20045;-65
2023/12/10 04:46:22;;;;;;;19.15;3.65;;;;;;;9.26;65.94;100140.03;5068948;28;20053;-65
2023/12/10 04:48:50;;;;;;;23.85;3.50;;;;;;;9.25;66.38;100149.13;5049712;28;20053;-65
2023/12/10 04:51:18;;;;;;;23.08;3.33;;;;;;;9.27;65.75;100157.78;5066685;28;20084;-65
2023/12/10 04:53:46;;;;;;;15.45;4.45;;;;;;;9.25;66.06;100149.94;5072828;28;20136;-64
2023/12/10 04:56:14;;;;;;;24.10;4.95;;;;;;;9.24;66.33;100172.44;5074818;28;20563;-65
2023/12/10 04:58:42;;;;;;;14.70;2.83;;;;;;;9.23;65.91;100192.25;5070476;28;20057;-64
2023/12/10 05:01:11;;;;;;;21.33;4.50;;;;;;;9.22;65.75;100179.09;5075015;28;20114;-65
2023/12/10 05:03:39;;;;;;;22.48;5.00;;;;;;;9.23;66.28;100189.59;5066449;28;20045;-64
2023/12/10 05:06:08;;;;;;;16.20;4.15;;;;;;;9.26;66.47;100202.53;5073037;28;20048;-65
2023/12/10 05:08:36;;;;;;;15.90;3.35;;;;;;;9.25;66.19;100184.81;5071653;28;20055;-65
2023/12/10 05:11:04;;;;;;;15.45;3.78;;;;;;;9.23;65.50;100192.25;5071555;28;20092;-65
2023/12/10 05:13:32;;;;;;;19.27;3.70;;;;;;;9.23;65.78;100205.66;5066925;28;20083;-65
2023/12/10 05:16:00;;;;;;;21.30;5.03;;;;;;;9.22;65.72;100213.94;5062184;28;20049;-64
2023/12/10 05:18:30;;;;;;;24.15;5.07;;;;;;;9.23;65.22;100227.13;5065318;28;20049;-65
2023/12/10 05:20:57;;;;;;;22.70;4.10;;;;;;;9.23;65.08;100234.34;5063573;28;20056;-64
2023/12/10 05:23:25;;;;;;;21.38;3.78;;;;;;;9.26;65.69;100239.25;5064453;28;20057;-65
2023/12/10 05:25:53;;;;;;;21.98;3.42;;;;;;;9.25;65.65;100229.56;5063484;28;20106;-65
2023/12/10 05:28:21;;;;;;;22.33;3.88;;;;;;;9.25;65.93;100242.97;5066029;28;20049;-66
2023/12/10 05:30:49;;;;;;;24.13;3.85;;;;;;;9.23;65.45;100232.47;5055761;28;20545;-65
2023/12/10 05:33:17;;;;;;;15.93;5.10;;;;;;;9.22;65.92;100243.44;5066470;28;20140;-65
2023/12/10 05:35:46;;;;;;;21.20;5.10;;;;;;;9.22;65.54;100238.88;5061723;28;20053;-65
2023/12/10 05:38:14;;;;;;;16.83;4.28;;;;;;;9.22;65.30;100244.25;5068315;28;20052;-65
2023/12/10 05:40:42;;;;;;;25.70;4.25;;;;;;;9.20;65.99;100238.31;5070431;28;20555;-65
2023/12/10 05:43:10;;;;;;;20.38;4.40;;;;;;;9.20;65.86;100259.75;5085878;28;20052;-62
2023/12/10 05:45:45;;;;;;;21.80;3.53;;;;;;;9.23;65.91;100250.44;4964219;28;10001008;-65
2023/12/10 05:48:12;;;;;;;19.50;4.53;;;;;;;9.22;65.28;100262.19;5062089;28;20275;-65
2023/12/10 05:50:40;;;;;;;18.50;3.65;;;;;;;9.21;65.96;100266.75;5062370;28;20071;-66
2023/12/10 05:53:10;;;;;;;18.17;4.38;;;;;;;9.24;65.40;100273.50;5061171;28;20083;-65
2023/12/10 05:55:38;;;;;;;19.05;4.03;;;;;;;9.22;65.99;100292.50;5067032;28;20559;-64
2023/12/10 05:58:05;;;;;;;15.02;4.13;;;;;;;9.21;65.93;100292.75;5061190;28;20567;-65
2023/12/10 06:00:33;;;;;;;19.15;4.25;;;;;;;9.20;65.88;100301.81;5066944;28;20045;-65
2023/12/10 06:03:01;;;;;;;16.42;3.50;;;;;;;9.21;65.94;100308.81;5067659;28;20063;-65
2023/12/10 06:05:29;;;;;;;22.55;4.20;;;;;;;9.21;65.99;100323.03;5066702;28;20049;-65
2023/12/10 06:07:59;;;;;;;22.90;4.10;;;;;;;9.20;65.83;100313.38;5062705;28;20040;-66
2023/12/10 06:10:29;;;;;;;21.17;3.67;;;;;;;9.21;66.14;100309.63;5061101;28;20047;-64
2023/12/10 06:12:57;;;;;;;25.17;4.95;;;;;;;9.22;66.10;100315.81;5066392;28;20078;-64
2023/12/10 06:15:25;;;;;;;15.75;3.40;;;;;;;9.22;65.93;100329.22;5057622;28;20049;-64
2023/12/10 06:17:53;;;;;;;18.23;4.80;;;;;;;9.21;66.10;100317.69;5062092;28;20045;-64
2023/12/10 06:20:21;;;;;;;23.33;4.00;;;;;;;9.22;65.68;100337.28;5061302;28;20053;-64
2023/12/10 06:22:49;;;;;;;25.83;4.78;;;;;;;9.22;66.02;100318.50;5061292;28;20065;-65
2023/12/10 06:25:17;;;;;;;17.17;2.97;;;;;;;9.21;66.10;100328.41;5052432;28;20057;-63
2023/12/10 06:27:46;;;;;;;16.80;4.32;;;;;;;9.22;66.06;100359.53;5050017;28;20052;-64
2023/12/10 06:30:14;;;;;;;17.67;5.07;;;;;;;9.20;66.01;100358.94;5055138;28;20084;-64
2023/12/10 06:32:42;;;;;;;24.90;4.40;;;;;;;9.21;65.87;100360.59;5061054;28;20139;-64
2023/12/10 06:35:10;;;;;;;19.15;3.35;;;;;;;9.20;65.95;100380.41;5060681;28;20510;-63
2023/12/10 06:37:39;;;;;;;23.60;4.55;;;;;;;9.19;65.90;100373.41;5060765;28;20041;-64
2023/12/10 06:40:08;;;;;;;19.13;3.85;;;;;;;9.18;66.08;100376.31;5050825;28;20548;-63
2023/12/10 06:42:36;;;;;;;24.92;5.97;;;;;;;9.20;66.17;100374.22;5058330;28;20057;-63
2023/12/10 06:45:07;;;;;;;20.88;4.50;;;;;;;9.20;66.23;100364.31;5058070;28;20103;-63
2023/12/10 06:47:35;;;;;;;22.08;4.80;;;;;;;9.21;65.82;100371.31;5045487;28;20079;-63
2023/12/10 06:50:03;;;;;;;19.35;4.25;;;;;;;9.21;66.40;100387.41;5058741;28;20045;-64
2023/12/10 06:52:31;;;;;;;22.40;4.15;;;;;;;9.20;66.37;100385.75;5061319;28;20053;-63
2023/12/10 06:54:59;;;;;;;24.70;5.88;;;;;;;9.19;66.25;100400.22;5055363;28;20589;-63
2023/12/10 06:57:28;;;;;;;14.93;3.28;;;;;;;9.19;66.11;100416.28;5048879;28;20045;-63
2023/12/10 06:59:56;;;;;;;17.38;4.00;;;;;;;9.12;66.09;100405.63;5062015;28;20053;-63
2023/12/10 07:02:25;;;;;;;15.40;3.63;;;;;;;9.18;66.63;100414.66;5052470;28;20514;-64
2023/12/10 07:04:53;;;;;;;25.60;3.28;;;;;;;9.19;66.17;100426.19;5055916;28;20061;-64
2023/12/10 07:07:21;;;;;;;15.63;3.65;;;;;;;9.17;65.83;100418.38;5060161;28;20059;-63
2023/12/10 07:09:49;;;;;;;24.02;4.55;;;;;;;9.17;66.31;100418.38;5070493;28;20114;-63
2023/12/10 07:12:17;;;;;;;17.08;4.05;;;;;;;9.16;66.07;100423.97;5062179;28;20081;-63
2023/12/10 07:14:45;;;;;;;17.42;3.72;;;;;;;9.16;66.42;100419.41;5056832;28;20138;-64
2023/12/10 07:17:15;;;;;;;19.58;4.38;;;;;;;9.18;65.96;100429.91;5065322;28;20052;-63
2023/12/10 07:19:45;;;;;;;21.95;4.22;;;;;;;9.18;66.50;100435.28;5061975;28;20060;-64
2023/12/10 07:22:15;;;;;;;23.95;4.32;;;;;;;9.18;66.06;100438.78;5050947;28;20052;-64
2023/12/10 07:24:43;;;;;;;18.92;3.33;;;;;;;9.19;66.25;100444.97;5055839;28;20063;-64
2023/12/10 07:27:11;;;;;;;17.60;4.00;;;;;;;9.15;65.92;100447.28;5056923;28;20108;-63
2023/12/10 07:29:39;;;;;;;21.95;4.38;;;;;;;9.17;66.10;100460.44;5051987;28;20103;-64
2023/12/10 07:32:07;;;;;;;23.23;4.53;;;;;;;9.17;65.92;100476.53;5055416;28;20103;-64
2023/12/10 07:34:35;;;;;;;22.20;4.28;;;;;;;9.15;65.71;100474.09;5053349;28;20079;-63
2023/12/10 07:37:05;;;;;;;15.32;3.22;;;;;;;9.19;65.81;100482.50;5057833;28;20068;-63
2023/12/10 07:39:33;;;;;;;18.83;4.47;;;;;;;9.14;66.26;100462.53;5058838;28;20049;-64
2023/12/10 07:42:02;;;;;;;25.25;4.00;;;;;;;9.18;66.23;100475.50;5058296;28;20053;-64
2023/12/10 07:44:29;;;;;;;26.25;5.50;;;;;;;9.15;66.51;100476.75;5055790;28;20052;-64
2023/12/10 07:46:58;;;;;;;22.30;4.55;;;;;;;9.23;66.31;100491.75;5054589;28;20048;-63
2023/12/10 07:49:26;;;;;;;23.63;4.88;;;;;;;9.36;65.58;100499.66;5054980;28;20049;-66
2023/12/10 07:51:54;;;;;;;27.05;3.92;;;;;;;9.51;65.38;100518.88;5055301;28;20066;-67
2023/12/10 07:54:23;;;;;;;24.70;4.30;;;;;;;9.67;64.72;100512.09;5059432;28;20060;-64
2023/12/10 07:56:51;;;;;;;18.85;3.92;;;;;;;9.85;64.34;100519.34;5060961;28;20079;-66
2023/12/10 07:59:19;;;;;;;20.48;3.75;;;;;;;10.01;63.82;100524.09;5052642;28;20159;-65
2023/12/10 08:01:51;;;;;;;18.95;3.78;;;;;;;10.14;63.46;100531.16;5053209;28;20123;-66
2023/12/10 08:04:19;;;;;;;17.33;3.80;;;;;;;10.29;62.92;100532.41;5062480;28;20583;-63
2023/12/10 08:06:47;;;;;;;19.52;4.03;;;;;;;10.41;62.45;100522.50;5056263;28;20095;-68
2023/12/10 08:09:14;;;;;;;17.33;4.13;;;;;;;10.54;62.09;100523.38;5060433;28;20049;-65
2023/12/10 08:11:44;;;;;;;16.77;4.80;;;;;;;10.70;62.07;100525.38;5072355;28;20060;-66
2023/12/10 08:14:12;;;;;;;19.50;4.22;;;;;;;10.87;61.34;100530.91;5072446;28;20064;-64
2023/12/10 08:16:39;;;;;;;18.25;4.28;;;;;;;10.95;61.28;100560.16;5062996;28;20135;-64
2023/12/10 08:19:07;;;;;;;14.43;3.38;;;;;;;11.09;60.94;100548.13;5068356;28;20049;-66
2023/12/10 08:21:35;;;;;;;15.90;3.75;;;;;;;11.11;60.53;100551.41;5066134;28;20055;-66
2023/12/10 08:24:04;;;;;;;14.73;3.70;;;;;;;11.06;60.65;100551.28;5066866;28;20040;-64
2023/12/10 08:26:32;;;;;;;17.92;3.88;;;;;;;11.04;60.72;100561.47;5082251;28;20048;-65
2023/12/10 08:29:01;;;;;;;20.00;3.85;;;;;;;11.08;60.64;100570.69;5079529;28;20040;-66
2023/12/10 08:31:29;;;;;;;16.95;4.10;;;;;;;11.15;60.79;100568.72;5062073;28;20136;-66
2023/12/10 08:33:57;;;;;;;17.30;3.63;;;;;;;11.14;60.26;100568.94;5076520;28;20118;-66
2023/12/10 08:36:25;;;;;;;18.85;3.30;;;;;;;11.13;60.18;100568.13;5076075;28;20048;-65
2023/12/10 08:38:53;;;;;;;21.83;3.58;;;;;;;11.02;60.32;100568.94;5082525;28;20052;-65
2023/12/10 08:41:20;;;;;;;20.42;3.53;;;;;;;10.93;60.76;100579.22;5059139;28;20070;-64
2023/12/10 08:43:48;;;;;;;15.70;4.15;;;;;;;10.77;61.79;100580.69;5070018;28;20114;-65
2023/12/10 08:46:18;;;;;;;18.17;3.58;;;;;;;10.69;62.22;100578.31;5067370;28;20044;-67
2023/12/10 08:48:46;;;;;;;20.08;5.03;;;;;;;10.57;62.22;100580.16;5058745;28;20147;-68
2023/12/10 08:51:14;;;;;;;20.23;3.70;;;;;;;10.45;62.88;100587.34;5057105;28;20081;-66
2023/12/10 08:53:42;;;;;;;18.70;5.88;;;;;;;10.34;63.05;100586.28;5075043;28;20056;-65
2023/12/10 08:56:10;;;;;;;17.40;4.03;;;;;;;10.24;63.24;100591.38;5063980;28;20049;-66
2023/12/10 08:58:38;;;;;;;23.50;4.07;;;;;;;10.34;62.95;100601.56;5066639;28;20103;-66
2023/12/10 09:01:06;;;;;;;19.33;4.57;;;;;;;10.33;63.20;100600.75;5062892;28;20049;-67
2023/12/10 09:03:36;;;;;;;19.25;3.72;;;;;;;10.33;63.23;100605.31;5073183;28;20086;-66
2023/12/10 09:06:04;;;;;;;19.45;3.60;;;;;;;10.27;63.56;100603.53;5068118;28;20065;-66
2023/12/10 09:08:32;;;;;;;28.35;5.70;;;;;;;10.19;63.33;100599.25;5067860;28;20052;-66
2023/12/10 09:11:03;;;;;;;26.88;5.63;;;;;;;10.14;63.60;100614.41;5069993;28;20057;-64
2023/12/10 09:13:31;;;;;;;18.38;3.88;;;;;;;10.07;64.02;100606.41;5060973;28;20132;-64
2023/12/10 09:15:59;;;;;;;19.67;5.45;;;;;;;10.15;64.15;100608.81;5065895;28;20884;-64
2023/12/10 09:18:27;;;;;;;22.25;3.85;;;;;;;10.22;63.47;100608.75;5065067;28;20049;-64
2023/12/10 09:20:57;;;;;;;19.02;3.72;;;;;;;10.24;63.66;100620.09;5057600;28;20076;-67
2023/12/10 09:23:25;;;;;;;20.98;4.13;;;;;;;10.32;63.47;100612.53;5041686;28;20069;-66
2023/12/10 09:25:53;;;;;;;17.05;3.65;;;;;;;10.40;63.39;100628.31;5043210;28;20084;-65
2023/12/10 09:28:21;;;;;;;15.93;3.70;;;;;;;10.55;63.05;100619.03;5062069;28;20049;-68
2023/12/10 09:30:49;;;;;;;16.55;4.35;;;;;;;10.69;62.69;100632.06;5059398;28;20049;-64
2023/12/10 09:33:17;;;;;;;16.50;3.88;;;;;;;10.85;62.17;100624.41;5072756;28;20079;-64
2023/12/10 09:35:45;;;;;;;16.65;3.40;;;;;;;10.89;61.80;100618.34;5065455;28;20045;-64
2023/12/10 09:38:14;;;;;;;18.63;3.63;;;;;;;10.85;62.21;100619.88;5066217;28;20129;-65
2023/12/10 09:40:42;;;;;;;18.42;3.53;;;;;;;10.90;61.85;100636.13;5060192;28;20341;-63
2023/12/10 09:43:11;;;;;;;17.65;4.10;;;;;;;11.00;61.61;100627.50;5066388;28;20564;-64
2023/12/10 09:45:39;;;;;;;21.77;3.92;;;;;;;10.95;62.09;100632.75;5063636;28;20068;-65
2023/12/10 09:48:07;;;;;;;17.77;3.70;;;;;;;10.84;62.38;100628.97;5061489;28;20055;-64
2023/12/10 09:50:38;;;;;;;21.10;4.00;;;;;;;10.73;62.89;100627.06;5065382;28;20052;-64
2023/12/10 09:53:07;;;;;;;16.08;4.18;;;;;;;10.59;63.22;100636.34;5068891;28;20558;-64
2023/12/10 09:55:36;;;;;;;20.48;4.00;;;;;;;10.51;63.50;100625.91;5080260;28;20045;-65
2023/12/10 09:58:04;;;;;;;17.75;4.90;;;;;;;10.41;63.98;100621.91;5065851;28;20060;-64
2023/12/10 10:00:32;;;;;;;18.73;5.32;;;;;;;10.35;64.51;100609.41;5064116;28;20044;-66
2023/12/10 10:03:01;;;;;;;24.38;5.15;;;;;;;10.29;64.64;100615.69;5072592;28;20051;-65
2023/12/10 10:05:30;;;;;;;25.20;4.45;;;;;;;10.19;64.98;100617.22;5063996;28;20049;-63
2023/12/10 10:07:58;;;;;;;20.60;5.32;;;;;;;10.34;65.00;100625.75;5060626;28;20134;-63
2023/12/10 10:10:26;;;;;;;23.15;3.50;;;;;;;10.17;65.23;100622.00;5062590;28;20079;-62
2023/12/10 10:12:56;;;;;;;20.00;5.45;;;;;;;10.10;65.74;100622.91;5064193;28;20052;-64
2023/12/10 10:15:30;;;;;;;22.88;4.47;;;;;;;10.06;65.92;100618.19;5070344;28;20179;-64
2023/12/10 10:17:59;;;;;;;16.83;4.05;;;;;;;10.08;65.71;100616.94;5064033;28;20044;-65
2023/12/10 10:20:27;;;;;;;21.60;3.38;;;;;;;10.02;65.89;100606.25;5065071;28;20537;-66
2023/12/10 10:22:56;;;;;;;21.05;4.68;;;;;;;9.98;66.08;100607.75;5052951;28;20445;-64
2023/12/10 10:25:23;;;;;;;16.95;3.58;;;;;;;9.95;66.37;100605.53;5064265;28;20045;-62
2023/12/10 10:27:51;;;;;;;16.27;3.60;;;;;;;9.91;66.55;100607.00;5065885;28;20059;-64
2023/12/10 10:30:21;;;;;;;16.92;3.50;;;;;;;9.92;66.83;100614.03;5071158;28;20049;-64
2023/12/10 10:32:49;;;;;;;16.95;3.72;;;;;;;9.91;66.79;100605.16;5064386;28;20045;-65
2023/12/10 10:35:18;;;;;;;18.27;4.25;;;;;;;9.89;66.73;100612.59;5060609;28;20117;-63
2023/12/10 10:37:47;;;;;;;22.98;4.15;;;;;;;9.91;67.10;100615.88;5064833;28;20053;-64
2023/12/10 10:40:14;;;;;;;17.33;3.92;;;;;;;9.92;66.97;100624.75;5074447;28;20048;-65
2023/12/10 10:42:44;;;;;;;20.25;4.13;;;;;;;9.91;66.67;100626.63;5061329;28;20068;-65
2023/12/10 10:45:12;;;;;;;18.88;3.90;;;;;;;9.88;66.85;100621.69;5057142;28;20062;-65
2023/12/10 10:47:41;;;;;;;22.35;5.05;;;;;;;9.88;67.15;100624.38;5059444;28;20045;-65
2023/12/10 10:50:11;;;;;;;15.88;3.72;;;;;;;9.89;67.08;100622.53;5065615;28;20045;-65
2023/12/10 10:52:52;;;;;;;18.08;3.70;;;;;;;9.89;67.26;100619.84;5067029;28;20139;-65
2023/12/10 10:55:21;;;;;;;24.45;4.13;;;;;;;9.88;67.19;100616.31;5066811;28;20071;-61
2023/12/10 10:57:49;;;;;;;15.50;3.97;;;;;;;9.89;67.09;100617.97;5060873;28;20045;-66
2023/12/10 11:00:37;;;;;;;17.88;3.47;;;;;;;9.89;67.09;100612.59;5062996;28;20064;-65
2023/12/10 11:03:08;;;;;;;20.20;3.65;;;;;;;9.91;67.05;100625.81;5082110;28;20052;-66
2023/12/10 11:05:37;;;;;;;21.35;4.05;;;;;;;9.88;67.05;100616.31;5084558;28;20079;-64
2023/12/10 11:08:05;;;;;;;17.77;4.00;;;;;;;9.91;67.28;100620.44;5076107;28;20044;-64
2023/12/10 11:10:34;;;;;;;21.60;4.18;;;;;;;9.91;67.29;100623.94;5064027;28;20049;-64
2023/12/10 11:13:02;;;;;;;17.92;3.90;;;;;;;9.92;67.35;100616.69;5065623;28;20106;-61
2023/12/10 11:15:31;;;;;;;20.98;4.10;;;;;;;9.92;66.95;100604.09;5053012;28;20056;-62
2023/12/10 11:18:00;;;;;;;18.80;4.18;;;;;;;9.90;67.31;100598.13;5057125;28;20056;-63
2023/12/10 11:20:39;;;;;;;17.23;4.05;;;;;;;9.90;67.14;100600.00;5066898;28;20076;-64
2023/12/10 11:23:09;;;;;;;19.83;3.78;;;;;;;9.93;67.21;100599.56;5070822;28;20045;-67
2023/12/10 11:25:38;;;;;;;15.73;4.13;;;;;;;9.92;67.13;100592.53;5069308;28;20049;-64
2023/12/10 11:28:11;;;;;;;13.90;3.97;;;;;;;9.92;67.48;100593.38;5067310;28;20509;-65
2023/12/10 11:30:40;;;;;;;17.42;4.35;;;;;;;9.92;67.42;100601.41;5073670;28;20052;-65